sensor_id;sensor_type;location;lat;lon;timestamp;P1;durP1;ratioP1;P2;durP2;ratioP2
16478;SDS011;8350;52.316;10.530;2022-09-21T00:01:58;4.28;;;3.88;;
16478;SDS011;8350;52.316;10.530;2022-09-21T00:04:24;4.90;;;3.72;;
16478;SDS011;8350;52.316;10.530;2022-09-21T00:06:51;4.97;;;3.83;;
16478;SDS011;8350;52.316;10.530;2022-09-21T00:09:18;4.10;;;3.80;;
16478;SDS011;8350;52.316;10.530;2022-09-21T00:11:45;4.25;;;3.85;;
16478;SDS011;8350;52.316;10.530;2022-09-21T00:14:12;3.83;;;3.53;;
16478;SDS011;8350;52.316;10.530;2022-09-21T00:16:40;4.85;;;4.30;;
16478;SDS011;8350;52.316;10.530;2022-09-21T00:19:09;4.22;;;3.83;;
16478;SDS011;8350;52.316;10.530;2022-09-21T00:21:37;4.18;;;3.67;;
16478;SDS011;8350;52.316;10.530;2022-09-21T00:24:05;4.95;;;4.22;;
16478;SDS011;8350;52.316;10.530;2022-09-21T00:26:33;3.95;;;3.53;;
16478;SDS011;8350;52.316;10.530;2022-09-21T00:29:00;3.85;;;3.35;;
16478;SDS011;8350;52.316;10.530;2022-09-21T00:31:28;4.68;;;3.60;;
16478;SDS011;8350;52.316;10.530;2022-09-21T00:33:56;4.25;;;3.75;;
16478;SDS011;8350;52.316;10.530;2022-09-21T00:36:25;4.10;;;3.80;;
16478;SDS011;8350;52.316;10.530;2022-09-21T00:38:54;4.63;;;3.75;;
16478;SDS011;8350;52.316;10.530;2022-09-21T00:41:22;4.47;;;4.07;;
16478;SDS011;8350;52.316;10.530;2022-09-21T00:46:45;4.35;;;3.95;;
16478;SDS011;8350;52.316;10.530;2022-09-21T00:49:14;4.82;;;4.38;;
16478;SDS011;8350;52.316;10.530;2022-09-21T00:51:44;5.65;;;5.15;;
16478;SDS011;8350;52.316;10.530;2022-09-21T00:54:12;5.50;;;4.45;;
16478;SDS011;8350;52.316;10.530;2022-09-21T00:56:42;4.93;;;4.40;;
16478;SDS011;8350;52.316;10.530;2022-09-21T00:59:10;5.80;;;4.85;;
16478;SDS011;8350;52.316;10.530;2022-09-21T01:01:39;7.00;;;5.72;;
16478;SDS011;8350;52.316;10.530;2022-09-21T01:04:09;6.13;;;5.03;;
16478;SDS011;8350;52.316;10.530;2022-09-21T01:06:37;6.57;;;4.88;;
16478;SDS011;8350;52.316;10.530;2022-09-21T01:09:06;5.13;;;4.57;;
16478;SDS011;8350;52.316;10.530;2022-09-21T01:11:36;5.30;;;4.32;;
16478;SDS011;8350;52.316;10.530;2022-09-21T01:14:16;4.38;;;3.97;;
16478;SDS011;8350;52.316;10.530;2022-09-21T01:16:55;4.55;;;3.90;;
16478;SDS011;8350;52.316;10.530;2022-09-21T01:19:42;6.25;;;4.22;;
16478;SDS011;8350;52.316;10.530;2022-09-21T01:22:25;4.50;;;4.10;;
16478;SDS011;8350;52.316;10.530;2022-09-21T01:25:07;4.43;;;4.03;;
16478;SDS011;8350;52.316;10.530;2022-09-21T01:27:51;7.72;;;5.18;;
16478;SDS011;8350;52.316;10.530;2022-09-21T01:30:28;5.70;;;4.05;;
16478;SDS011;8350;52.316;10.530;2022-09-21T01:33:01;5.18;;;4.60;;
16478;SDS011;8350;52.316;10.530;2022-09-21T01:35:32;4.85;;;4.32;;
16478;SDS011;8350;52.316;10.530;2022-09-21T01:38:04;4.90;;;4.10;;
16478;SDS011;8350;52.316;10.530;2022-09-21T01:40:35;7.47;;;5.03;;
16478;SDS011;8350;52.316;10.530;2022-09-21T01:43:05;7.25;;;5.15;;
16478;SDS011;8350;52.316;10.530;2022-09-21T01:45:38;6.30;;;4.32;;
16478;SDS011;8350;52.316;10.530;2022-09-21T01:48:10;5.05;;;4.55;;
16478;SDS011;8350;52.316;10.530;2022-09-21T01:50:40;4.97;;;4.28;;
16478;SDS011;8350;52.316;10.530;2022-09-21T01:53:12;6.90;;;4.85;;
16478;SDS011;8350;52.316;10.530;2022-09-21T01:55:45;5.82;;;5.32;;
16478;SDS011;8350;52.316;10.530;2022-09-21T01:58:17;5.35;;;4.75;;
16478;SDS011;8350;52.316;10.530;2022-09-21T02:00:49;5.97;;;5.18;;
16478;SDS011;8350;52.316;10.530;2022-09-21T02:03:20;6.85;;;5.72;;
16478;SDS011;8350;52.316;10.530;2022-09-21T02:05:53;5.30;;;4.80;;
16478;SDS011;8350;52.316;10.530;2022-09-21T02:08:22;5.18;;;4.68;;
16478;SDS011;8350;52.316;10.530;2022-09-21T02:10:51;5.55;;;5.05;;
16478;SDS011;8350;52.316;10.530;2022-09-21T02:13:20;7.30;;;5.07;;
16478;SDS011;8350;52.316;10.530;2022-09-21T02:15:54;5.30;;;4.80;;
16478;SDS011;8350;52.316;10.530;2022-09-21T02:18:34;5.78;;;5.05;;
16478;SDS011;8350;52.316;10.530;2022-09-21T02:21:11;6.53;;;5.82;;
16478;SDS011;8350;52.316;10.530;2022-09-21T02:23:46;6.68;;;6.07;;
16478;SDS011;8350;52.316;10.530;2022-09-21T02:26:18;6.78;;;5.57;;
16478;SDS011;8350;52.316;10.530;2022-09-21T02:28:52;7.53;;;6.07;;
16478;SDS011;8350;52.316;10.530;2022-09-21T02:31:30;7.18;;;6.47;;
16478;SDS011;8350;52.316;10.530;2022-09-21T02:34:04;6.20;;;5.40;;
16478;SDS011;8350;52.316;10.530;2022-09-21T02:36:43;6.90;;;6.22;;
16478;SDS011;8350;52.316;10.530;2022-09-21T02:39:15;7.15;;;6.00;;
16478;SDS011;8350;52.316;10.530;2022-09-21T02:41:48;7.57;;;6.50;;
16478;SDS011;8350;52.316;10.530;2022-09-21T02:44:21;7.22;;;5.95;;
16478;SDS011;8350;52.316;10.530;2022-09-21T02:46:55;8.48;;;5.55;;
16478;SDS011;8350;52.316;10.530;2022-09-21T02:49:27;9.02;;;5.60;;
16478;SDS011;8350;52.316;10.530;2022-09-21T02:52:00;7.88;;;5.75;;
16478;SDS011;8350;52.316;10.530;2022-09-21T02:54:32;7.00;;;6.20;;
16478;SDS011;8350;52.316;10.530;2022-09-21T02:57:02;8.65;;;6.57;;
16478;SDS011;8350;52.316;10.530;2022-09-21T02:59:30;7.25;;;6.55;;
16478;SDS011;8350;52.316;10.530;2022-09-21T03:01:59;6.95;;;5.95;;
16478;SDS011;8350;52.316;10.530;2022-09-21T03:04:26;8.38;;;6.18;;
16478;SDS011;8350;52.316;10.530;2022-09-21T03:06:53;5.75;;;4.70;;
16478;SDS011;8350;52.316;10.530;2022-09-21T03:09:21;4.78;;;4.38;;
16478;SDS011;8350;52.316;10.530;2022-09-21T03:11:48;5.20;;;4.70;;
16478;SDS011;8350;52.316;10.530;2022-09-21T03:14:15;5.10;;;4.60;;
16478;SDS011;8350;52.316;10.530;2022-09-21T03:16:43;5.10;;;4.45;;
16478;SDS011;8350;52.316;10.530;2022-09-21T03:19:11;4.82;;;4.20;;
16478;SDS011;8350;52.316;10.530;2022-09-21T03:21:39;5.47;;;4.97;;
16478;SDS011;8350;52.316;10.530;2022-09-21T03:24:06;6.38;;;5.13;;
16478;SDS011;8350;52.316;10.530;2022-09-21T03:26:33;8.60;;;5.47;;
16478;SDS011;8350;52.316;10.530;2022-09-21T03:29:00;6.40;;;5.80;;
16478;SDS011;8350;52.316;10.530;2022-09-21T03:31:29;7.03;;;6.32;;
16478;SDS011;8350;52.316;10.530;2022-09-21T03:33:56;7.07;;;6.10;;
16478;SDS011;8350;52.316;10.530;2022-09-21T03:36:24;7.80;;;5.97;;
16478;SDS011;8350;52.316;10.530;2022-09-21T03:38:51;7.60;;;5.70;;
16478;SDS011;8350;52.316;10.530;2022-09-21T03:41:18;8.63;;;5.97;;
16478;SDS011;8350;52.316;10.530;2022-09-21T03:43:45;7.13;;;5.75;;
16478;SDS011;8350;52.316;10.530;2022-09-21T03:46:12;7.28;;;4.95;;
16478;SDS011;8350;52.316;10.530;2022-09-21T03:48:41;6.53;;;5.22;;
16478;SDS011;8350;52.316;10.530;2022-09-21T03:51:11;5.97;;;4.68;;
16478;SDS011;8350;52.316;10.530;2022-09-21T03:53:39;7.15;;;6.03;;
16478;SDS011;8350;52.316;10.530;2022-09-21T03:56:06;5.65;;;5.10;;
16478;SDS011;8350;52.316;10.530;2022-09-21T03:58:33;5.18;;;4.78;;
16478;SDS011;8350;52.316;10.530;2022-09-21T04:01:01;6.70;;;5.38;;
16478;SDS011;8350;52.316;10.530;2022-09-21T04:03:28;7.25;;;5.82;;
16478;SDS011;8350;52.316;10.530;2022-09-21T04:05:55;8.93;;;5.22;;
16478;SDS011;8350;52.316;10.530;2022-09-21T04:08:23;6.55;;;5.88;;
16478;SDS011;8350;52.316;10.530;2022-09-21T04:10:51;5.38;;;4.88;;
16478;SDS011;8350;52.316;10.530;2022-09-21T04:13:20;7.15;;;4.70;;
16478;SDS011;8350;52.316;10.530;2022-09-21T04:15:48;4.50;;;4.03;;
16478;SDS011;8350;52.316;10.530;2022-09-21T04:18:15;5.63;;;5.13;;
16478;SDS011;8350;52.316;10.530;2022-09-21T04:20:42;4.63;;;4.22;;
16478;SDS011;8350;52.316;10.530;2022-09-21T04:23:09;5.88;;;4.70;;
16478;SDS011;8350;52.316;10.530;2022-09-21T04:25:36;5.53;;;5.03;;
16478;SDS011;8350;52.316;10.530;2022-09-21T04:28:05;6.88;;;5.50;;
16478;SDS011;8350;52.316;10.530;2022-09-21T04:30:32;9.10;;;6.28;;
16478;SDS011;8350;52.316;10.530;2022-09-21T04:32:59;6.72;;;5.97;;
16478;SDS011;8350;52.316;10.530;2022-09-21T04:35:26;5.60;;;4.68;;
16478;SDS011;8350;52.316;10.530;2022-09-21T04:37:53;6.70;;;6.10;;
16478;SDS011;8350;52.316;10.530;2022-09-21T04:40:21;5.88;;;5.32;;
16478;SDS011;8350;52.316;10.530;2022-09-21T04:42:49;5.55;;;5.05;;
16478;SDS011;8350;52.316;10.530;2022-09-21T04:45:19;6.55;;;5.30;;
16478;SDS011;8350;52.316;10.530;2022-09-21T04:47:46;7.05;;;5.28;;
16478;SDS011;8350;52.316;10.530;2022-09-21T04:50:14;5.38;;;4.88;;
16478;SDS011;8350;52.316;10.530;2022-09-21T04:52:41;6.07;;;5.50;;
16478;SDS011;8350;52.316;10.530;2022-09-21T04:55:09;6.20;;;5.38;;
16478;SDS011;8350;52.316;10.530;2022-09-21T04:57:36;6.93;;;5.82;;
16478;SDS011;8350;52.316;10.530;2022-09-21T05:00:04;7.50;;;6.80;;
16478;SDS011;8350;52.316;10.530;2022-09-21T05:02:33;8.50;;;6.10;;
16478;SDS011;8350;52.316;10.530;2022-09-21T05:05:00;8.48;;;6.45;;
16478;SDS011;8350;52.316;10.530;2022-09-21T05:07:27;8.05;;;6.32;;
16478;SDS011;8350;52.316;10.530;2022-09-21T05:09:54;8.45;;;7.30;;
16478;SDS011;8350;52.316;10.530;2022-09-21T05:12:29;7.65;;;6.82;;
16478;SDS011;8350;52.316;10.530;2022-09-21T05:14:56;6.43;;;5.78;;
16478;SDS011;8350;52.316;10.530;2022-09-21T05:17:24;6.18;;;5.22;;
16478;SDS011;8350;52.316;10.530;2022-09-21T05:19:52;6.22;;;4.93;;
16478;SDS011;8350;52.316;10.530;2022-09-21T05:22:19;5.57;;;4.88;;
16478;SDS011;8350;52.316;10.530;2022-09-21T05:24:47;6.07;;;5.47;;
16478;SDS011;8350;52.316;10.530;2022-09-21T05:27:14;5.55;;;4.85;;
16478;SDS011;8350;52.316;10.530;2022-09-21T05:29:41;5.53;;;5.03;;
16478;SDS011;8350;52.316;10.530;2022-09-21T05:32:11;6.95;;;5.25;;
16478;SDS011;8350;52.316;10.530;2022-09-21T05:34:49;6.15;;;4.97;;
16478;SDS011;8350;52.316;10.530;2022-09-21T05:37:37;4.65;;;4.25;;
16478;SDS011;8350;52.316;10.530;2022-09-21T05:40:10;4.95;;;3.97;;
16478;SDS011;8350;52.316;10.530;2022-09-21T05:42:39;4.55;;;4.15;;
16478;SDS011;8350;52.316;10.530;2022-09-21T05:45:07;6.15;;;5.40;;
16478;SDS011;8350;52.316;10.530;2022-09-21T05:50:36;7.72;;;6.85;;
16478;SDS011;8350;52.316;10.530;2022-09-21T05:53:27;12.68;;;9.15;;
16478;SDS011;8350;52.316;10.530;2022-09-21T05:56:07;12.75;;;9.48;;
16478;SDS011;8350;52.316;10.530;2022-09-21T05:58:45;8.32;;;7.10;;
16478;SDS011;8350;52.316;10.530;2022-09-21T06:01:22;7.65;;;6.85;;
16478;SDS011;8350;52.316;10.530;2022-09-21T06:04:01;7.00;;;6.30;;
16478;SDS011;8350;52.316;10.530;2022-09-21T06:06:30;6.57;;;5.90;;
16478;SDS011;8350;52.316;10.530;2022-09-21T06:08:57;9.13;;;7.18;;
16478;SDS011;8350;52.316;10.530;2022-09-21T06:11:24;7.63;;;6.15;;
16478;SDS011;8350;52.316;10.530;2022-09-21T06:13:51;7.05;;;6.43;;
16478;SDS011;8350;52.316;10.530;2022-09-21T06:16:18;6.50;;;5.90;;
16478;SDS011;8350;52.316;10.530;2022-09-21T06:18:45;7.13;;;6.18;;
16478;SDS011;8350;52.316;10.530;2022-09-21T06:21:12;7.88;;;7.07;;
16478;SDS011;8350;52.316;10.530;2022-09-21T06:23:40;10.35;;;7.45;;
16478;SDS011;8350;52.316;10.530;2022-09-21T06:26:08;9.25;;;7.47;;
16478;SDS011;8350;52.316;10.530;2022-09-21T06:28:37;12.13;;;7.95;;
16478;SDS011;8350;52.316;10.530;2022-09-21T06:31:04;9.20;;;8.02;;
16478;SDS011;8350;52.316;10.530;2022-09-21T06:33:34;8.38;;;7.57;;
16478;SDS011;8350;52.316;10.530;2022-09-21T06:36:01;7.60;;;6.78;;
16478;SDS011;8350;52.316;10.530;2022-09-21T06:38:29;10.15;;;7.45;;
16478;SDS011;8350;52.316;10.530;2022-09-21T06:41:01;8.77;;;7.38;;
16478;SDS011;8350;52.316;10.530;2022-09-21T06:43:29;9.38;;;7.65;;
16478;SDS011;8350;52.316;10.530;2022-09-21T06:45:57;9.45;;;7.13;;
16478;SDS011;8350;52.316;10.530;2022-09-21T06:48:25;9.10;;;7.57;;
16478;SDS011;8350;52.316;10.530;2022-09-21T06:50:55;8.75;;;7.32;;
16478;SDS011;8350;52.316;10.530;2022-09-21T06:53:23;8.77;;;7.95;;
16478;SDS011;8350;52.316;10.530;2022-09-21T06:55:50;9.02;;;8.13;;
16478;SDS011;8350;52.316;10.530;2022-09-21T06:58:19;8.20;;;7.18;;
16478;SDS011;8350;52.316;10.530;2022-09-21T07:00:46;10.80;;;8.75;;
16478;SDS011;8350;52.316;10.530;2022-09-21T07:03:13;9.13;;;8.10;;
16478;SDS011;8350;52.316;10.530;2022-09-21T07:05:43;11.85;;;8.75;;
16478;SDS011;8350;52.316;10.530;2022-09-21T07:08:10;10.05;;;8.82;;
16478;SDS011;8350;52.316;10.530;2022-09-21T07:10:37;9.80;;;8.68;;
16478;SDS011;8350;52.316;10.530;2022-09-21T07:13:04;12.20;;;8.85;;
16478;SDS011;8350;52.316;10.530;2022-09-21T07:15:35;10.30;;;8.93;;
16478;SDS011;8350;52.316;10.530;2022-09-21T07:18:09;11.40;;;8.85;;
16478;SDS011;8350;52.316;10.530;2022-09-21T07:20:36;12.98;;;9.10;;
16478;SDS011;8350;52.316;10.530;2022-09-21T07:23:08;9.88;;;8.88;;
16478;SDS011;8350;52.316;10.530;2022-09-21T07:25:36;9.75;;;8.75;;
16478;SDS011;8350;52.316;10.530;2022-09-21T07:28:04;13.30;;;8.90;;
16478;SDS011;8350;52.316;10.530;2022-09-21T07:30:30;9.60;;;8.13;;
16478;SDS011;8350;52.316;10.530;2022-09-21T07:32:59;11.80;;;7.97;;
16478;SDS011;8350;52.316;10.530;2022-09-21T07:35:26;12.38;;;9.00;;
16478;SDS011;8350;52.316;10.530;2022-09-21T07:37:53;10.32;;;8.93;;
16478;SDS011;8350;52.316;10.530;2022-09-21T07:40:22;11.18;;;8.48;;
16478;SDS011;8350;52.316;10.530;2022-09-21T07:42:49;9.93;;;8.90;;
16478;SDS011;8350;52.316;10.530;2022-09-21T07:45:16;9.70;;;8.77;;
16478;SDS011;8350;52.316;10.530;2022-09-21T07:47:43;9.85;;;8.38;;
16478;SDS011;8350;52.316;10.530;2022-09-21T07:50:12;12.73;;;9.65;;
16478;SDS011;8350;52.316;10.530;2022-09-21T07:52:39;13.70;;;8.40;;
16478;SDS011;8350;52.316;10.530;2022-09-21T07:55:08;12.60;;;9.32;;
16478;SDS011;8350;52.316;10.530;2022-09-21T07:57:36;9.60;;;8.60;;
16478;SDS011;8350;52.316;10.530;2022-09-21T08:00:20;13.68;;;9.10;;
16478;SDS011;8350;52.316;10.530;2022-09-21T08:02:47;10.98;;;8.60;;
16478;SDS011;8350;52.316;10.530;2022-09-21T08:05:16;9.00;;;8.02;;
16478;SDS011;8350;52.316;10.530;2022-09-21T08:07:43;10.75;;;7.47;;
16478;SDS011;8350;52.316;10.530;2022-09-21T08:10:10;9.20;;;7.50;;
16478;SDS011;8350;52.316;10.530;2022-09-21T08:12:37;8.93;;;7.43;;
16478;SDS011;8350;52.316;10.530;2022-09-21T08:15:04;8.13;;;7.07;;
16478;SDS011;8350;52.316;10.530;2022-09-21T08:17:32;9.55;;;6.82;;
16478;SDS011;8350;52.316;10.530;2022-09-21T08:19:59;10.10;;;7.20;;
16478;SDS011;8350;52.316;10.530;2022-09-21T08:22:28;11.75;;;6.70;;
16478;SDS011;8350;52.316;10.530;2022-09-21T08:24:55;12.05;;;7.07;;
16478;SDS011;8350;52.316;10.530;2022-09-21T08:27:22;9.13;;;6.90;;
16478;SDS011;8350;52.316;10.530;2022-09-21T08:29:49;8.02;;;6.78;;
16478;SDS011;8350;52.316;10.530;2022-09-21T08:32:16;9.95;;;6.55;;
16478;SDS011;8350;52.316;10.530;2022-09-21T08:34:43;6.95;;;6.25;;
16478;SDS011;8350;52.316;10.530;2022-09-21T08:37:10;8.52;;;6.05;;
16478;SDS011;8350;52.316;10.530;2022-09-21T08:39:39;10.13;;;6.25;;
16478;SDS011;8350;52.316;10.530;2022-09-21T08:42:09;10.10;;;6.22;;
16478;SDS011;8350;52.316;10.530;2022-09-21T08:44:47;11.20;;;6.00;;
16478;SDS011;8350;52.316;10.530;2022-09-21T08:47:19;10.65;;;4.72;;
16478;SDS011;8350;52.316;10.530;2022-09-21T08:49:54;9.38;;;5.10;;
16478;SDS011;8350;52.316;10.530;2022-09-21T08:52:25;9.02;;;4.95;;
16478;SDS011;8350;52.316;10.530;2022-09-21T08:54:54;8.13;;;4.70;;
16478;SDS011;8350;52.316;10.530;2022-09-21T08:57:25;7.40;;;5.50;;
16478;SDS011;8350;52.316;10.530;2022-09-21T08:59:55;9.75;;;5.90;;
16478;SDS011;8350;52.316;10.530;2022-09-21T09:05:24;8.60;;;5.07;;
16478;SDS011;8350;52.316;10.530;2022-09-21T09:08:12;8.23;;;5.03;;
16478;SDS011;8350;52.316;10.530;2022-09-21T09:10:50;5.38;;;4.75;;
16478;SDS011;8350;52.316;10.530;2022-09-21T09:13:36;8.43;;;5.40;;
16478;SDS011;8350;52.316;10.530;2022-09-21T09:16:17;8.48;;;5.32;;
16478;SDS011;8350;52.316;10.530;2022-09-21T09:18:50;8.13;;;5.50;;
16478;SDS011;8350;52.316;10.530;2022-09-21T09:21:19;5.85;;;4.85;;
16478;SDS011;8350;52.316;10.530;2022-09-21T09:23:50;9.88;;;5.55;;
16478;SDS011;8350;52.316;10.530;2022-09-21T09:26:24;6.65;;;4.38;;
16478;SDS011;8350;52.316;10.530;2022-09-21T09:28:56;6.10;;;3.90;;
16478;SDS011;8350;52.316;10.530;2022-09-21T09:31:27;9.55;;;3.72;;
16478;SDS011;8350;52.316;10.530;2022-09-21T09:33:57;7.28;;;4.63;;
16478;SDS011;8350;52.316;10.530;2022-09-21T09:36:30;5.72;;;4.00;;
16478;SDS011;8350;52.316;10.530;2022-09-21T09:38:59;5.00;;;3.92;;
16478;SDS011;8350;52.316;10.530;2022-09-21T09:44:49;6.20;;;3.30;;
16478;SDS011;8350;52.316;10.530;2022-09-21T09:47:35;6.03;;;3.45;;
16478;SDS011;8350;52.316;10.530;2022-09-21T09:50:15;9.10;;;3.95;;
16478;SDS011;8350;52.316;10.530;2022-09-21T09:52:54;13.40;;;4.43;;
16478;SDS011;8350;52.316;10.530;2022-09-21T09:55:30;8.02;;;4.20;;
16478;SDS011;8350;52.316;10.530;2022-09-21T09:58:02;7.93;;;3.58;;
16478;SDS011;8350;52.316;10.530;2022-09-21T10:00:31;4.28;;;2.50;;
16478;SDS011;8350;52.316;10.530;2022-09-21T10:02:58;7.10;;;3.15;;
16478;SDS011;8350;52.316;10.530;2022-09-21T10:05:30;9.75;;;2.58;;
16478;SDS011;8350;52.316;10.530;2022-09-21T10:07:58;5.78;;;2.47;;
16478;SDS011;8350;52.316;10.530;2022-09-21T10:10:29;4.97;;;2.60;;
16478;SDS011;8350;52.316;10.530;2022-09-21T10:13:02;4.05;;;2.13;;
16478;SDS011;8350;52.316;10.530;2022-09-21T10:15:39;5.43;;;2.25;;
16478;SDS011;8350;52.316;10.530;2022-09-21T10:18:14;4.15;;;2.05;;
16478;SDS011;8350;52.316;10.530;2022-09-21T10:20:51;3.75;;;1.77;;
16478;SDS011;8350;52.316;10.530;2022-09-21T10:23:21;5.13;;;2.30;;
16478;SDS011;8350;52.316;10.530;2022-09-21T10:25:54;6.13;;;3.15;;
16478;SDS011;8350;52.316;10.530;2022-09-21T10:28:24;4.70;;;2.42;;
16478;SDS011;8350;52.316;10.530;2022-09-21T10:31:06;6.72;;;2.33;;
16478;SDS011;8350;52.316;10.530;2022-09-21T10:33:41;4.00;;;2.20;;
16478;SDS011;8350;52.316;10.530;2022-09-21T10:36:29;7.15;;;2.45;;
16478;SDS011;8350;52.316;10.530;2022-09-21T10:41:46;6.30;;;2.33;;
16478;SDS011;8350;52.316;10.530;2022-09-21T10:44:15;4.88;;;2.08;;
16478;SDS011;8350;52.316;10.530;2022-09-21T10:46:44;4.57;;;1.80;;
16478;SDS011;8350;52.316;10.530;2022-09-21T10:49:14;5.22;;;2.15;;
16478;SDS011;8350;52.316;10.530;2022-09-21T10:51:45;6.65;;;2.08;;
16478;SDS011;8350;52.316;10.530;2022-09-21T10:54:19;6.38;;;2.28;;
16478;SDS011;8350;52.316;10.530;2022-09-21T10:56:52;4.40;;;1.60;;
16478;SDS011;8350;52.316;10.530;2022-09-21T10:59:23;3.97;;;1.58;;
16478;SDS011;8350;52.316;10.530;2022-09-21T11:01:53;5.38;;;1.80;;
16478;SDS011;8350;52.316;10.530;2022-09-21T11:07:08;3.28;;;1.33;;
16478;SDS011;8350;52.316;10.530;2022-09-21T11:09:46;3.85;;;1.40;;
16478;SDS011;8350;52.316;10.530;2022-09-21T11:12:29;4.57;;;1.55;;
16478;SDS011;8350;52.316;10.530;2022-09-21T11:15:02;4.70;;;2.00;;
16478;SDS011;8350;52.316;10.530;2022-09-21T11:17:43;5.60;;;2.33;;
16478;SDS011;8350;52.316;10.530;2022-09-21T11:20:17;6.15;;;2.03;;
16478;SDS011;8350;52.316;10.530;2022-09-21T11:22:54;4.07;;;1.45;;
16478;SDS011;8350;52.316;10.530;2022-09-21T11:25:27;4.13;;;1.42;;
16478;SDS011;8350;52.316;10.530;2022-09-21T11:28:01;3.83;;;1.27;;
16478;SDS011;8350;52.316;10.530;2022-09-21T11:30:40;5.07;;;1.15;;
16478;SDS011;8350;52.316;10.530;2022-09-21T11:33:22;2.67;;;0.90;;
16478;SDS011;8350;52.316;10.530;2022-09-21T11:36:02;6.28;;;1.35;;
16478;SDS011;8350;52.316;10.530;2022-09-21T11:38:37;3.25;;;1.30;;
16478;SDS011;8350;52.316;10.530;2022-09-21T11:41:17;4.15;;;1.30;;
16478;SDS011;8350;52.316;10.530;2022-09-21T11:44:12;4.43;;;1.20;;
16478;SDS011;8350;52.316;10.530;2022-09-21T11:46:57;4.50;;;1.20;;
16478;SDS011;8350;52.316;10.530;2022-09-21T11:49:40;3.05;;;1.15;;
16478;SDS011;8350;52.316;10.530;2022-09-21T11:52:24;5.10;;;1.55;;
16478;SDS011;8350;52.316;10.530;2022-09-21T11:55:06;3.67;;;1.63;;
16478;SDS011;8350;52.316;10.530;2022-09-21T11:58:00;4.40;;;1.15;;
16478;SDS011;8350;52.316;10.530;2022-09-21T12:00:36;2.80;;;1.00;;
16478;SDS011;8350;52.316;10.530;2022-09-21T12:03:26;4.10;;;1.42;;
16478;SDS011;8350;52.316;10.530;2022-09-21T12:06:21;4.70;;;1.40;;
16478;SDS011;8350;52.316;10.530;2022-09-21T12:11:54;2.63;;;0.80;;
16478;SDS011;8350;52.316;10.530;2022-09-21T12:14:29;2.92;;;0.88;;
16478;SDS011;8350;52.316;10.530;2022-09-21T12:17:03;2.92;;;0.68;;
16478;SDS011;8350;52.316;10.530;2022-09-21T12:19:38;1.40;;;0.88;;
16478;SDS011;8350;52.316;10.530;2022-09-21T12:22:11;3.45;;;1.00;;
16478;SDS011;8350;52.316;10.530;2022-09-21T12:24:43;0.93;;;0.60;;
16478;SDS011;8350;52.316;10.530;2022-09-21T12:27:24;2.42;;;0.82;;
16478;SDS011;8350;52.316;10.530;2022-09-21T12:29:55;3.28;;;1.38;;
16478;SDS011;8350;52.316;10.530;2022-09-21T12:32:32;4.35;;;1.40;;
16478;SDS011;8350;52.316;10.530;2022-09-21T12:35:12;3.33;;;1.10;;
16478;SDS011;8350;52.316;10.530;2022-09-21T12:37:44;2.63;;;1.10;;
16478;SDS011;8350;52.316;10.530;2022-09-21T12:40:15;3.58;;;1.00;;
16478;SDS011;8350;52.316;10.530;2022-09-21T12:42:53;3.50;;;0.65;;
16478;SDS011;8350;52.316;10.530;2022-09-21T12:45:26;3.92;;;0.93;;
16478;SDS011;8350;52.316;10.530;2022-09-21T12:47:58;2.17;;;0.70;;
16478;SDS011;8350;52.316;10.530;2022-09-21T12:50:34;3.00;;;0.90;;
16478;SDS011;8350;52.316;10.530;2022-09-21T12:53:04;2.50;;;1.00;;
16478;SDS011;8350;52.316;10.530;2022-09-21T12:55:38;3.03;;;1.67;;
16478;SDS011;8350;52.316;10.530;2022-09-21T12:58:12;2.53;;;0.80;;
16478;SDS011;8350;52.316;10.530;2022-09-21T13:00:54;3.08;;;0.85;;
16478;SDS011;8350;52.316;10.530;2022-09-21T13:03:27;3.38;;;0.70;;
16478;SDS011;8350;52.316;10.530;2022-09-21T13:06:06;4.68;;;1.20;;
16478;SDS011;8350;52.316;10.530;2022-09-21T13:08:59;1.23;;;0.55;;
16478;SDS011;8350;52.316;10.530;2022-09-21T13:11:28;1.80;;;0.60;;
16478;SDS011;8350;52.316;10.530;2022-09-21T13:13:58;3.00;;;0.90;;
16478;SDS011;8350;52.316;10.530;2022-09-21T13:16:29;2.45;;;0.70;;
16478;SDS011;8350;52.316;10.530;2022-09-21T13:18:59;1.95;;;0.65;;
16478;SDS011;8350;52.316;10.530;2022-09-21T13:21:28;2.35;;;0.70;;
16478;SDS011;8350;52.316;10.530;2022-09-21T13:23:57;1.33;;;0.80;;
16478;SDS011;8350;52.316;10.530;2022-09-21T13:26:32;1.80;;;0.57;;
16478;SDS011;8350;52.316;10.530;2022-09-21T13:29:03;0.93;;;0.50;;
16478;SDS011;8350;52.316;10.530;2022-09-21T13:31:57;1.58;;;0.50;;
16478;SDS011;8350;52.316;10.530;2022-09-21T13:34:26;1.85;;;0.65;;
16478;SDS011;8350;52.316;10.530;2022-09-21T13:37:12;2.95;;;0.70;;
16478;SDS011;8350;52.316;10.530;2022-09-21T13:43:16;0.90;;;0.52;;
16478;SDS011;8350;52.316;10.530;2022-09-21T13:45:52;1.55;;;0.85;;
16478;SDS011;8350;52.316;10.530;2022-09-21T13:48:24;2.78;;;1.05;;
16478;SDS011;8350;52.316;10.530;2022-09-21T13:50:58;1.42;;;0.60;;
16478;SDS011;8350;52.316;10.530;2022-09-21T13:53:32;4.00;;;0.68;;
16478;SDS011;8350;52.316;10.530;2022-09-21T13:56:05;3.47;;;0.85;;
16478;SDS011;8350;52.316;10.530;2022-09-21T13:58:35;2.03;;;0.70;;
16478;SDS011;8350;52.316;10.530;2022-09-21T14:01:11;1.85;;;0.68;;
16478;SDS011;8350;52.316;10.530;2022-09-21T14:03:44;1.48;;;0.60;;
16478;SDS011;8350;52.316;10.530;2022-09-21T14:06:14;2.05;;;0.70;;
16478;SDS011;8350;52.316;10.530;2022-09-21T14:08:47;2.30;;;0.68;;
16478;SDS011;8350;52.316;10.530;2022-09-21T14:11:22;2.63;;;0.80;;
16478;SDS011;8350;52.316;10.530;2022-09-21T14:14:02;4.20;;;0.85;;
16478;SDS011;8350;52.316;10.530;2022-09-21T14:22:33;2.38;;;0.73;;
16478;SDS011;8350;52.316;10.530;2022-09-21T14:27:58;1.25;;;0.52;;
16478;SDS011;8350;52.316;10.530;2022-09-21T14:30:31;3.47;;;0.70;;
16478;SDS011;8350;52.316;10.530;2022-09-21T14:33:03;3.60;;;0.68;;
16478;SDS011;8350;52.316;10.530;2022-09-21T14:35:36;2.78;;;0.82;;
16478;SDS011;8350;52.316;10.530;2022-09-21T14:38:12;1.73;;;0.60;;
16478;SDS011;8350;52.316;10.530;2022-09-21T14:40:44;2.05;;;0.68;;
16478;SDS011;8350;52.316;10.530;2022-09-21T14:43:15;1.25;;;0.80;;
16478;SDS011;8350;52.316;10.530;2022-09-21T14:45:51;1.83;;;0.60;;
16478;SDS011;8350;52.316;10.530;2022-09-21T14:48:28;1.08;;;0.40;;
16478;SDS011;8350;52.316;10.530;2022-09-21T14:51:05;2.83;;;0.90;;
16478;SDS011;8350;52.316;10.530;2022-09-21T14:59:41;4.38;;;0.70;;
16478;SDS011;8350;52.316;10.530;2022-09-21T15:02:18;3.58;;;0.80;;
16478;SDS011;8350;52.316;10.530;2022-09-21T15:04:52;1.35;;;0.60;;
16478;SDS011;8350;52.316;10.530;2022-09-21T15:07:39;3.88;;;0.70;;
16478;SDS011;8350;52.316;10.530;2022-09-21T15:10:30;3.25;;;0.85;;
16478;SDS011;8350;52.316;10.530;2022-09-21T15:16:29;2.05;;;0.70;;
16478;SDS011;8350;52.316;10.530;2022-09-21T15:19:13;2.67;;;0.82;;
16478;SDS011;8350;52.316;10.530;2022-09-21T15:21:46;2.15;;;0.80;;
16478;SDS011;8350;52.316;10.530;2022-09-21T15:24:17;3.10;;;0.88;;
16478;SDS011;8350;52.316;10.530;2022-09-21T15:26:47;2.17;;;0.70;;
16478;SDS011;8350;52.316;10.530;2022-09-21T15:29:19;1.98;;;0.60;;
16478;SDS011;8350;52.316;10.530;2022-09-21T15:31:49;3.83;;;0.85;;
16478;SDS011;8350;52.316;10.530;2022-09-21T15:34:17;2.38;;;0.70;;
16478;SDS011;8350;52.316;10.530;2022-09-21T15:36:44;2.88;;;0.70;;
16478;SDS011;8350;52.316;10.530;2022-09-21T15:39:23;1.30;;;1.00;;
16478;SDS011;8350;52.316;10.530;2022-09-21T15:42:13;1.95;;;0.75;;
16478;SDS011;8350;52.316;10.530;2022-09-21T15:44:47;1.33;;;0.70;;
16478;SDS011;8350;52.316;10.530;2022-09-21T15:47:17;2.53;;;0.70;;
16478;SDS011;8350;52.316;10.530;2022-09-21T15:49:49;1.75;;;0.60;;
16478;SDS011;8350;52.316;10.530;2022-09-21T15:52:22;1.52;;;0.60;;
16478;SDS011;8350;52.316;10.530;2022-09-21T15:54:54;1.92;;;0.80;;
16478;SDS011;8350;52.316;10.530;2022-09-21T15:57:29;1.33;;;0.70;;